Terminal Aerodrome Forecast
Issued by NWS

Home | Current Version | Previous Version | Graphics & Text | Print | Product List | Glossary On
Versions: 1 2 3 4 5 6 7 8 9 10 11 12 13 14
673
FTUS43 KICT 111919 AAA
TAFCNU
TAF AMD
KCNU 111919Z 1119/1218 31018G25KT P6SM BKN250
     FM120600 35012KT P6SM SKC
     FM121200 34006KT P6SM SKC=

USA.gov is the U.S. government's official web portal to all federal, state and local government web resources and services.